createdAt,value
2022-09-23T00:01:19.191Z,3.67
2022-09-23T00:03:47.494Z,2.95
2022-09-23T00:06:16.326Z,3.95
2022-09-23T00:08:44.226Z,3.92
2022-09-23T00:11:17.015Z,3.90
2022-09-23T00:13:46.288Z,3.67
2022-09-23T00:16:16.089Z,4.65
2022-09-23T00:18:44.037Z,4.65
2022-09-23T00:21:13.890Z,3.03
2022-09-23T00:23:43.036Z,3.05
2022-09-23T00:26:13.049Z,3.15
2022-09-23T00:28:40.753Z,3.03
2022-09-23T00:31:10.831Z,3.85
2022-09-23T00:33:38.556Z,3.17
2022-09-23T00:36:08.642Z,3.45
2022-09-23T00:38:35.687Z,3.20
2022-09-23T00:41:17.603Z,2.95
2022-09-23T00:43:52.905Z,2.80
2022-09-23T00:46:32.629Z,3.50
2022-09-23T00:49:29.211Z,2.90
2022-09-23T00:52:06.773Z,2.72
2022-09-23T00:54:34.068Z,3.28
2022-09-23T00:57:03.919Z,3.05
2022-09-23T00:59:32.820Z,3.22
2022-09-23T01:02:02.108Z,3.83
2022-09-23T01:04:30.504Z,3.05
2022-09-23T01:06:57.625Z,3.40
2022-09-23T01:09:25.374Z,3.58
2022-09-23T01:12:27.953Z,3.90
2022-09-23T01:15:42.890Z,5.35
2022-09-23T01:18:16.001Z,4.13
2022-09-23T01:21:14.500Z,4.97
2022-09-23T01:24:07.904Z,4.68
2022-09-23T01:26:51.911Z,5.47
2022-09-23T01:30:01.405Z,5.68
2022-09-23T01:32:37.275Z,4.97
2022-09-23T01:35:38.582Z,4.30
2022-09-23T01:38:20.312Z,5.15
2022-09-23T01:41:03.441Z,4.07
2022-09-23T01:43:40.070Z,5.70
2022-09-23T01:46:18.724Z,5.88
2022-09-23T01:48:54.213Z,5.32
2022-09-23T01:51:26.752Z,5.20
2022-09-23T01:54:07.188Z,4.07
2022-09-23T01:56:42.399Z,6.20
2022-09-23T01:59:16.569Z,5.82
2022-09-23T02:01:53.722Z,5.82
2022-09-23T02:04:40.916Z,4.45
2022-09-23T02:07:37.868Z,5.13
2022-09-23T02:10:25.163Z,4.97
2022-09-23T02:12:57.370Z,4.25
2022-09-23T02:15:31.583Z,5.20
2022-09-23T02:18:08.842Z,6.30
2022-09-23T02:20:41.367Z,4.32
2022-09-23T02:23:19.210Z,4.00
2022-09-23T02:26:07.466Z,4.82
2022-09-23T02:28:34.509Z,3.63
2022-09-23T02:31:21.752Z,4.70
2022-09-23T02:34:27.790Z,3.72
2022-09-23T02:37:22.942Z,3.65
2022-09-23T02:40:03.013Z,4.60
2022-09-23T02:43:01.024Z,3.28
2022-09-23T02:45:28.383Z,3.65
2022-09-23T02:48:04.493Z,4.13
2022-09-23T02:50:33.909Z,3.95
2022-09-23T02:53:01.489Z,3.35
2022-09-23T02:55:32.463Z,4.32
2022-09-23T02:58:04.178Z,4.55
2022-09-23T03:00:56.873Z,4.30
2022-09-23T03:06:28.768Z,3.70
2022-09-23T03:09:04.435Z,3.13
2022-09-23T03:11:35.358Z,3.13
2022-09-23T03:14:44.655Z,2.85
2022-09-23T03:17:20.258Z,3.80
2022-09-23T03:20:02.613Z,3.63
2022-09-23T03:22:39.402Z,3.20
2022-09-23T03:25:12.211Z,3.70
2022-09-23T03:27:42.501Z,3.95
2022-09-23T03:30:10.898Z,3.60
2022-09-23T03:32:39.637Z,3.08
2022-09-23T03:35:07.444Z,2.70
2022-09-23T03:37:56.637Z,3.50
2022-09-23T03:40:26.839Z,3.88
2022-09-23T03:42:56.522Z,3.72
2022-09-23T03:45:28.089Z,3.05
2022-09-23T03:47:55.388Z,3.88
2022-09-23T03:50:22.641Z,4.05
2022-09-23T03:52:50.539Z,3.70
2022-09-23T03:55:19.568Z,3.85
2022-09-23T03:57:46.835Z,3.80
2022-09-23T04:00:15.003Z,3.58
2022-09-23T04:02:42.448Z,3.70
2022-09-23T04:05:10.741Z,3.03
2022-09-23T04:07:37.879Z,4.47
2022-09-23T04:10:06.458Z,3.15
2022-09-23T04:12:33.596Z,3.30
2022-09-23T04:15:00.675Z,3.35
2022-09-23T04:17:27.965Z,2.80
2022-09-23T04:19:55.070Z,2.95
2022-09-23T04:22:22.447Z,2.92
2022-09-23T04:24:49.641Z,3.05
2022-09-23T04:27:16.868Z,4.03
2022-09-23T04:29:44.267Z,2.85
2022-09-23T04:32:11.861Z,3.42
2022-09-23T04:34:39.040Z,3.97
2022-09-23T04:37:06.197Z,3.47
2022-09-23T04:39:33.352Z,3.60
2022-09-23T04:42:00.539Z,3.67
2022-09-23T04:44:28.388Z,3.05
2022-09-23T04:46:55.581Z,3.60
2022-09-23T04:49:23.590Z,3.22
2022-09-23T04:51:50.733Z,3.47
2022-09-23T04:54:17.967Z,4.22
2022-09-23T04:56:45.136Z,3.40
2022-09-23T04:59:12.334Z,3.33
2022-09-23T05:01:39.609Z,3.70
2022-09-23T05:04:10.184Z,4.38
2022-09-23T05:06:37.457Z,3.40
2022-09-23T05:09:07.904Z,4.10
2022-09-23T05:11:35.440Z,4.15
2022-09-23T05:14:02.972Z,4.18
2022-09-23T05:16:30.265Z,3.95
2022-09-23T05:18:58.224Z,3.90
2022-09-23T05:21:30.263Z,4.05
2022-09-23T05:24:01.423Z,3.80
2022-09-23T05:26:31.130Z,4.55
2022-09-23T05:28:59.283Z,4.13
2022-09-23T05:31:28.723Z,4.13
2022-09-23T05:34:00.973Z,4.22
2022-09-23T05:36:34.249Z,3.35
2022-09-23T05:39:04.213Z,4.30
2022-09-23T05:41:31.634Z,5.05
2022-09-23T05:43:59.827Z,4.47
2022-09-23T05:46:29.511Z,4.65
2022-09-23T05:49:02.176Z,4.88
2022-09-23T05:51:31.306Z,6.07
2022-09-23T05:53:59.814Z,5.72
2022-09-23T05:56:28.303Z,5.53
2022-09-23T05:58:57.651Z,5.10
2022-09-23T06:01:28.854Z,5.78
2022-09-23T06:03:58.007Z,5.65
2022-09-23T06:06:29.105Z,6.50
2022-09-23T06:08:57.175Z,5.57
2022-09-23T06:11:24.258Z,5.25
2022-09-23T06:13:55.820Z,5.90
2022-09-23T06:16:23.158Z,3.67
2022-09-23T06:18:50.329Z,5.45
2022-09-23T06:21:18.315Z,4.78
2022-09-23T06:23:46.207Z,3.60
2022-09-23T06:26:17.377Z,3.78
2022-09-23T06:28:45.911Z,3.42
2022-09-23T06:31:17.158Z,4.55
2022-09-23T06:33:45.729Z,4.72
2022-09-23T06:36:22.850Z,4.22
2022-09-23T06:38:57.867Z,4.70
2022-09-23T06:41:25.061Z,4.72
2022-09-23T06:43:54.745Z,4.40
2022-09-23T06:46:21.912Z,5.22
2022-09-23T06:48:49.720Z,5.03
2022-09-23T06:51:19.542Z,5.20
2022-09-23T06:53:48.235Z,5.20
2022-09-23T06:56:16.727Z,7.22
2022-09-23T06:58:44.002Z,6.22
2022-09-23T07:01:16.144Z,7.68
2022-09-23T07:03:45.233Z,5.57
2022-09-23T07:06:12.496Z,6.78
2022-09-23T07:08:44.010Z,6.78
2022-09-23T07:11:13.211Z,7.10
2022-09-23T07:13:42.031Z,8.57
2022-09-23T07:16:11.005Z,7.47
2022-09-23T07:18:39.030Z,7.03
2022-09-23T07:21:09.498Z,7.53
2022-09-23T07:23:37.880Z,6.68
2022-09-23T07:26:05.412Z,9.15
2022-09-23T07:28:32.579Z,8.82
2022-09-23T07:31:07.753Z,8.18
2022-09-23T07:33:36.906Z,8.10
2022-09-23T07:36:08.562Z,7.35
2022-09-23T07:38:37.414Z,7.45
2022-09-23T07:41:08.999Z,7.22
2022-09-23T07:43:37.195Z,7.45
2022-09-23T07:46:10.281Z,8.18
2022-09-23T07:48:38.931Z,7.57
2022-09-23T07:51:09.080Z,6.13
2022-09-23T07:53:36.901Z,5.15
2022-09-23T07:56:06.454Z,5.55
2022-09-23T07:58:35.036Z,7.43
2022-09-23T08:01:07.866Z,5.55
2022-09-23T08:03:36.202Z,4.97
2022-09-23T08:06:12.081Z,6.80
2022-09-23T08:08:43.582Z,5.70
2022-09-23T08:11:13.324Z,6.72
2022-09-23T08:13:41.432Z,5.13
2022-09-23T08:16:09.609Z,5.07
2022-09-23T08:18:36.877Z,6.68
2022-09-23T08:21:04.419Z,5.22
2022-09-23T08:23:33.983Z,4.72
2022-09-23T08:26:03.052Z,4.93
2022-09-23T08:28:31.251Z,4.65
2022-09-23T08:30:58.295Z,5.10
2022-09-23T08:33:25.834Z,6.50
2022-09-23T08:35:58.927Z,4.57
2022-09-23T08:38:26.141Z,4.80
2022-09-23T08:41:04.490Z,4.60
2022-09-23T08:43:34.150Z,6.05
2022-09-23T08:46:05.299Z,4.90
2022-09-23T08:48:47.656Z,5.93
2022-09-23T08:51:21.985Z,5.93
2022-09-23T08:53:49.395Z,5.38
2022-09-23T08:56:18.816Z,5.65
2022-09-23T08:59:04.062Z,5.60
2022-09-23T09:01:43.219Z,4.18
2022-09-23T09:04:38.914Z,5.65
2022-09-23T09:07:35.372Z,4.47
2022-09-23T09:10:16.906Z,6.43
2022-09-23T09:13:02.994Z,5.20
2022-09-23T09:15:30.301Z,5.70
2022-09-23T09:18:03.821Z,5.85
2022-09-23T09:20:57.075Z,5.55
2022-09-23T09:23:49.744Z,4.70
2022-09-23T09:28:48.523Z,8.02
2022-09-23T09:31:53.972Z,12.63
2022-09-23T09:34:46.028Z,17.67
2022-09-23T09:37:19.774Z,16.38
2022-09-23T09:39:46.891Z,15.93
2022-09-23T09:42:35.170Z,19.65
2022-09-23T09:45:04.523Z,18.10
2022-09-23T09:47:31.658Z,16.10
2022-09-23T09:50:24.744Z,16.50
2022-09-23T09:52:56.236Z,18.75
2022-09-23T09:55:28.818Z,16.52
2022-09-23T09:58:04.205Z,18.33
2022-09-23T10:00:31.285Z,20.25
2022-09-23T10:03:21.908Z,19.40
2022-09-23T10:05:52.394Z,16.10
2022-09-23T10:08:37.971Z,17.23
2022-09-23T10:11:17.017Z,19.17
2022-09-23T10:14:19.021Z,16.92
2022-09-23T10:16:49.205Z,18.17
2022-09-23T10:19:27.416Z,16.65
2022-09-23T10:21:59.909Z,18.67
2022-09-23T10:24:30.558Z,18.23
2022-09-23T10:27:08.008Z,18.63
2022-09-23T10:29:50.805Z,19.10
2022-09-23T10:32:31.314Z,13.85
2022-09-23T10:35:14.171Z,18.80
2022-09-23T10:37:50.521Z,16.65
2022-09-23T10:40:45.317Z,15.25
2022-09-23T10:44:07.206Z,14.57
2022-09-23T10:46:42.201Z,16.13
2022-09-23T10:49:40.582Z,15.35
2022-09-23T10:52:25.885Z,14.48
2022-09-23T10:54:58.971Z,17.83
2022-09-23T10:57:45.019Z,16.13
2022-09-23T11:00:34.683Z,12.82
2022-09-23T11:03:20.779Z,14.85
2022-09-23T11:06:22.333Z,14.10
2022-09-23T11:09:18.332Z,12.00
2022-09-23T11:12:04.068Z,11.75
2022-09-23T11:15:01.706Z,10.52
2022-09-23T11:18:00.807Z,10.57
2022-09-23T11:20:48.174Z,10.45
2022-09-23T11:23:48.224Z,8.82
2022-09-23T11:26:32.263Z,11.05
2022-09-23T11:29:22.334Z,12.32
2022-09-23T11:31:49.643Z,9.13
2022-09-23T11:34:31.780Z,8.13
2022-09-23T11:37:31.411Z,8.30
2022-09-23T11:40:15.712Z,8.52
2022-09-23T11:42:58.146Z,7.95
2022-09-23T11:45:31.669Z,7.60
2022-09-23T11:48:04.233Z,7.63
2022-09-23T11:50:40.474Z,7.00
2022-09-23T11:53:12.256Z,5.78
2022-09-23T11:55:58.314Z,5.93
2022-09-23T11:58:34.983Z,4.85
2022-09-23T12:01:09.536Z,4.22
2022-09-23T12:04:08.937Z,3.92
2022-09-23T12:06:45.255Z,4.65
2022-09-23T12:09:54.064Z,4.07
2022-09-23T12:12:27.215Z,5.03
2022-09-23T12:15:00.486Z,4.45
2022-09-23T12:17:49.794Z,5.60
2022-09-23T12:20:49.750Z,4.22
2022-09-23T12:23:39.946Z,4.70
2022-09-23T12:26:17.818Z,5.03
2022-09-23T12:28:49.050Z,4.80
2022-09-23T12:31:19.336Z,4.60
2022-09-23T12:33:54.404Z,4.65
2022-09-23T12:36:35.581Z,4.18
2022-09-23T12:39:04.986Z,5.03
2022-09-23T12:41:38.133Z,5.10
2022-09-23T12:44:12.890Z,4.93
2022-09-23T12:46:45.048Z,4.00
2022-09-23T12:49:36.285Z,5.30
2022-09-23T12:52:12.825Z,6.50
2022-09-23T12:54:41.822Z,6.07
2022-09-23T12:57:31.435Z,6.13
2022-09-23T13:00:13.434Z,7.20
2022-09-23T13:02:47.853Z,7.30
2022-09-23T13:05:36.892Z,5.65
2022-09-23T13:08:17.415Z,6.57
2022-09-23T13:10:52.521Z,5.97
2022-09-23T13:13:31.723Z,5.78
2022-09-23T13:16:19.693Z,4.72
2022-09-23T13:18:54.677Z,4.88
2022-09-23T13:21:43.417Z,6.13
2022-09-23T13:24:13.653Z,4.63
2022-09-23T13:26:53.304Z,4.75
2022-09-23T13:30:00.255Z,4.43
2022-09-23T13:32:35.977Z,4.57
2022-09-23T13:35:14.644Z,4.50
2022-09-23T13:37:47.697Z,4.22
2022-09-23T13:40:21.071Z,4.57
2022-09-23T13:42:53.688Z,4.50
2022-09-23T13:45:23.460Z,4.25
2022-09-23T13:47:53.088Z,3.15
2022-09-23T13:50:23.502Z,3.30
2022-09-23T13:53:11.505Z,3.10
2022-09-23T13:55:39.435Z,3.63
2022-09-23T13:58:21.939Z,3.28
2022-09-23T14:03:17.743Z,3.70
2022-09-23T14:05:46.075Z,3.88
2022-09-23T14:08:13.563Z,5.43
2022-09-23T14:10:45.065Z,4.45
2022-09-23T14:13:26.074Z,4.67
2022-09-23T14:15:56.296Z,3.95
2022-09-23T14:18:38.411Z,4.40
2022-09-23T14:21:25.879Z,5.00
2022-09-23T14:23:53.074Z,4.50
2022-09-23T14:26:21.242Z,4.38
2022-09-23T14:28:48.815Z,5.32
2022-09-23T14:31:15.998Z,5.93
2022-09-23T14:33:43.557Z,5.88
2022-09-23T14:36:36.780Z,6.95
2022-09-23T14:39:10.206Z,5.80
2022-09-23T14:41:40.643Z,8.15
2022-09-23T14:44:18.233Z,7.75
2022-09-23T14:46:56.915Z,6.80
2022-09-23T14:49:25.156Z,7.22
2022-09-23T14:52:00.761Z,5.13
2022-09-23T14:54:41.504Z,7.00
2022-09-23T14:57:23.956Z,6.75
2022-09-23T15:02:33.921Z,7.60
2022-09-23T15:05:22.837Z,6.18
2022-09-23T15:07:56.286Z,6.57
2022-09-23T15:10:27.826Z,6.60
2022-09-23T15:13:03.389Z,7.20
2022-09-23T15:15:30.611Z,6.18
2022-09-23T15:18:05.221Z,6.88
2022-09-23T15:20:32.847Z,7.68
2022-09-23T15:23:00.189Z,8.02
2022-09-23T15:25:40.808Z,7.88
2022-09-23T15:28:10.792Z,8.38
2022-09-23T15:30:39.158Z,7.22
2022-09-23T15:33:06.888Z,7.45
2022-09-23T15:35:34.209Z,8.20
2022-09-23T15:38:03.299Z,8.02
2022-09-23T15:40:35.733Z,7.43
2022-09-23T15:43:20.592Z,8.68
2022-09-23T15:45:53.314Z,8.10
2022-09-23T15:48:54.200Z,7.38
2022-09-23T15:51:25.003Z,6.70
2022-09-23T15:53:52.285Z,7.18
2022-09-23T15:56:19.443Z,9.07
2022-09-23T15:58:47.103Z,8.93
2022-09-23T16:01:35.946Z,6.70
2022-09-23T16:04:04.713Z,7.45
2022-09-23T16:06:34.395Z,6.97
2022-09-23T16:09:01.605Z,6.65
2022-09-23T16:11:31.963Z,6.45
2022-09-23T16:14:00.687Z,6.90
2022-09-23T16:16:28.254Z,7.32
2022-09-23T16:18:55.608Z,6.10
2022-09-23T16:21:26.023Z,6.53
2022-09-23T16:23:54.536Z,5.78
2022-09-23T16:26:30.332Z,6.93
2022-09-23T16:28:58.705Z,6.82
2022-09-23T16:31:29.712Z,8.27
2022-09-23T16:33:57.597Z,8.20
2022-09-23T16:36:37.657Z,7.45
2022-09-23T16:39:07.515Z,13.80
2022-09-23T16:41:34.768Z,10.95
2022-09-23T16:44:04.541Z,8.65
2022-09-23T16:46:32.390Z,7.85
2022-09-23T16:49:00.853Z,8.20
2022-09-23T16:51:38.289Z,8.32
2022-09-23T16:54:11.524Z,8.93
2022-09-23T16:56:44.267Z,8.43
2022-09-23T16:59:15.192Z,7.40
2022-09-23T17:02:01.268Z,9.27
2022-09-23T17:04:28.651Z,7.95
2022-09-23T17:06:56.508Z,6.75
2022-09-23T17:09:29.086Z,6.07
2022-09-23T17:12:17.594Z,5.25
2022-09-23T17:14:44.715Z,4.70
2022-09-23T17:17:11.861Z,3.97
2022-09-23T17:19:41.364Z,3.30
2022-09-23T17:22:09.964Z,2.97
2022-09-23T17:24:37.070Z,2.80
2022-09-23T17:27:04.219Z,3.20
2022-09-23T17:29:31.294Z,2.50
2022-09-23T17:31:58.481Z,2.65
2022-09-23T17:34:25.588Z,2.55
2022-09-23T17:36:52.637Z,3.25
2022-09-23T17:39:19.744Z,2.63
2022-09-23T17:41:46.881Z,2.33
2022-09-23T17:44:16.145Z,2.13
2022-09-23T17:46:43.725Z,3.08
2022-09-23T17:49:12.212Z,2.85
2022-09-23T17:51:40.020Z,3.25
2022-09-23T17:54:07.117Z,2.08
2022-09-23T17:56:34.350Z,2.30
2022-09-23T17:59:02.222Z,2.17
2022-09-23T18:01:30.127Z,2.50
2022-09-23T18:03:59.103Z,1.65
2022-09-23T18:06:29.001Z,1.45
2022-09-23T18:08:57.935Z,1.45
2022-09-23T18:11:27.782Z,1.77
2022-09-23T18:13:57.462Z,1.83
2022-09-23T18:16:30.718Z,2.00
2022-09-23T18:19:00.314Z,2.30
2022-09-23T18:21:30.151Z,2.30
2022-09-23T18:24:15.688Z,2.70
2022-09-23T18:26:45.712Z,2.50
2022-09-23T18:29:13.000Z,2.42
2022-09-23T18:31:41.209Z,2.10
2022-09-23T18:34:12.444Z,2.50
2022-09-23T18:36:39.591Z,2.28
2022-09-23T18:39:06.984Z,2.05
2022-09-23T18:41:35.158Z,1.70
2022-09-23T18:44:03.364Z,2.03
2022-09-23T18:46:31.188Z,2.35
2022-09-23T18:49:17.754Z,2.33
2022-09-23T18:51:56.468Z,2.13
2022-09-23T18:54:25.851Z,2.28
2022-09-23T18:56:53.297Z,2.25
2022-09-23T18:59:23.949Z,3.08
2022-09-23T19:01:51.529Z,2.78
2022-09-23T19:04:20.699Z,1.80
2022-09-23T19:06:48.398Z,2.25
2022-09-23T19:09:16.340Z,2.55
2022-09-23T19:11:44.430Z,2.45
2022-09-23T19:14:12.446Z,2.15
2022-09-23T19:16:41.796Z,2.75
2022-09-23T19:19:09.564Z,2.95
2022-09-23T19:21:37.036Z,2.40
2022-09-23T19:24:06.573Z,1.85
2022-09-23T19:26:37.595Z,1.95
2022-09-23T19:29:08.280Z,2.30
2022-09-23T19:31:41.901Z,2.50
2022-09-23T19:34:15.046Z,1.83
2022-09-23T19:36:44.323Z,2.25
2022-09-23T19:39:16.953Z,2.72
2022-09-23T19:41:44.504Z,2.30
2022-09-23T19:44:11.928Z,2.58
2022-09-23T19:46:42.914Z,2.08
2022-09-23T19:49:11.397Z,2.15
2022-09-23T19:51:39.001Z,2.90
2022-09-23T19:54:07.306Z,2.47
2022-09-23T19:56:34.890Z,3.10
2022-09-23T19:59:05.934Z,2.78
2022-09-23T20:01:34.071Z,2.40
2022-09-23T20:04:01.916Z,2.42
2022-09-23T20:06:30.896Z,2.33
2022-09-23T20:09:01.866Z,2.75
2022-09-23T20:11:30.019Z,2.47
2022-09-23T20:14:03.936Z,2.40
2022-09-23T20:16:34.371Z,3.10
2022-09-23T20:19:03.243Z,2.30
2022-09-23T20:21:30.710Z,2.67
2022-09-23T20:23:58.893Z,2.58
2022-09-23T20:26:44.989Z,2.55
2022-09-23T20:29:12.190Z,3.25
2022-09-23T20:31:41.755Z,3.13
2022-09-23T20:34:10.592Z,2.50
2022-09-23T20:36:40.053Z,2.05
2022-09-23T20:39:07.329Z,2.60
2022-09-23T20:41:37.691Z,2.75
2022-09-23T20:44:14.027Z,2.67
2022-09-23T20:46:47.765Z,2.60
2022-09-23T20:49:16.952Z,2.40
2022-09-23T20:51:44.135Z,2.75
2022-09-23T20:54:12.280Z,3.20
2022-09-23T20:56:39.732Z,3.28
2022-09-23T20:59:06.917Z,3.10
2022-09-23T21:01:36.524Z,2.78
2022-09-23T21:04:06.062Z,2.70
2022-09-23T21:06:35.024Z,2.65
2022-09-23T21:09:02.460Z,2.45
2022-09-23T21:11:30.057Z,2.92
2022-09-23T21:13:58.740Z,2.70
2022-09-23T21:16:26.038Z,2.95
2022-09-23T21:18:53.332Z,3.15
2022-09-23T21:21:22.365Z,2.97
2022-09-23T21:23:50.591Z,2.60
2022-09-23T21:26:23.356Z,2.58
2022-09-23T21:28:53.214Z,2.22
2022-09-23T21:31:23.845Z,2.17
2022-09-23T21:34:14.579Z,2.03
2022-09-23T21:36:43.374Z,2.67
2022-09-23T21:39:11.344Z,1.80
2022-09-23T21:41:39.155Z,1.73
2022-09-23T21:44:08.117Z,1.85
2022-09-23T21:46:36.037Z,2.13
2022-09-23T21:49:04.211Z,2.30
2022-09-23T21:51:36.709Z,2.10
2022-09-23T21:54:04.084Z,2.22
2022-09-23T21:56:35.215Z,2.63
2022-09-23T21:59:02.904Z,2.15
2022-09-23T22:01:36.509Z,1.90
2022-09-23T22:04:13.262Z,2.10
2022-09-23T22:06:40.705Z,2.33
2022-09-23T22:09:14.105Z,2.45
2022-09-23T22:12:00.676Z,2.40
2022-09-23T22:14:28.123Z,1.67
2022-09-23T22:16:57.689Z,1.83
2022-09-23T22:19:27.186Z,2.33
2022-09-23T22:21:55.962Z,1.90
2022-09-23T22:24:23.313Z,1.58
2022-09-23T22:26:50.959Z,1.77
2022-09-23T22:29:36.623Z,2.10
2022-09-23T22:32:24.222Z,1.80
2022-09-23T22:34:52.712Z,2.60
2022-09-23T22:37:26.207Z,1.98
2022-09-23T22:39:53.917Z,2.60
2022-09-23T22:42:22.560Z,2.33
2022-09-23T22:44:51.017Z,2.88
2022-09-23T22:47:19.935Z,3.33
2022-09-23T22:49:47.877Z,2.13
2022-09-23T22:52:21.228Z,2.00
2022-09-23T22:54:48.466Z,2.35
2022-09-23T22:57:15.683Z,2.75
2022-09-23T22:59:48.330Z,2.45
2022-09-23T23:02:20.165Z,2.45
2022-09-23T23:04:48.216Z,2.22
2022-09-23T23:07:20.334Z,2.05
2022-09-23T23:09:49.596Z,2.13
2022-09-23T23:12:19.049Z,2.30
2022-09-23T23:14:47.542Z,2.80
2022-09-23T23:17:14.693Z,2.40
2022-09-23T23:19:41.803Z,3.17
2022-09-23T23:22:08.897Z,3.10
2022-09-23T23:24:35.986Z,3.30
2022-09-23T23:27:03.157Z,3.55
2022-09-23T23:29:30.455Z,3.15
2022-09-23T23:31:57.766Z,2.90
2022-09-23T23:34:24.875Z,2.90
2022-09-23T23:36:56.306Z,3.45
2022-09-23T23:39:25.035Z,3.23
2022-09-23T23:41:56.686Z,2.30
2022-09-23T23:44:25.530Z,2.80
2022-09-23T23:46:53.686Z,3.38
2022-09-23T23:49:21.657Z,3.35
2022-09-23T23:51:49.147Z,2.75
2022-09-23T23:54:16.400Z,2.75
2022-09-23T23:56:43.912Z,3.10
2022-09-23T23:59:11.698Z,2.90
